Mayer, AZ (86333)

11:46 PM MST on July 27, 2016 (GMT -0700)
Spring Valley off Hwy 69 | | Change Station

Elev 3980 ft 34.35 °N, 112.17 °W | Updated 1 second ago

Clear
Clear
79.0 °F
Feels Like 79 °F
N
4.0
Wind Variable Wind from NW
Gusts 4.0 mph

Today
High -- | Low -- °F
--% Chance of Precip.
Yesterday
High -- | Low -- °F
Precip. -- in
Pressure 29.84 in
Visibility 10.0 miles
Clouds Clear
Heat Index 79 °F
Dew Point 49 °F
Humidity 35%
Rainfall in
Snow Depth Not available.
5:36 AM 7:33 PM
Waning Crescent, 35% visible
METAR KPRC 280553Z AUTO 20005KT 10SM CLR 21/12 A3013 RMK AO2 SLP104 T02110122 10300 20211 50006
Pressure 29.84 in
Visibility 10.0 miles
Clouds Clear
Heat Index 79 °F
Dew Point 49 °F
Humidity 35%
Rainfall in
Snow Depth Not available.
5:36 AM 7:33 PM
Waning Crescent, 35% visible
METAR KPRC 280553Z AUTO 20005KT 10SM CLR 21/12 A3013 RMK AO2 SLP104 T02110122 10300 20211 50006

10-Day Weather Forecast

Almanac

Astronomy

Jul. 27, 2016 Rise Set
Actual Time
Civil Twilight
Nautical Twilight
Astronomical Twilight
Moon
Length of Visible Light
Length of Day
Tomorrow will be .
, % of the Moon is Illuminated

Today's Extremes

State Highs State Lows

Community

WunderPhotos

Upload Photos

1,928,064 photos uploaded!

WunderBlog® & News

Nearby

Air Quality

  Air Quality AQ Index Pollutant
Not available.

Snow Depth

Station Depth Elevation

Earthquake Activity

City Distance Mag. Time & Date
Minimum magnitude displayed is 2.5.

Coastal Water Temperatures

Place Temperature

Stations

Nearby Weather Stations

Station Location Temp. Windchill Dew Point Humidity Wind Precip. Elev Updated Type
                   

Watches & Warnings

There are currently no watches in effect.